sensor_id;sensor_type;location;lat;lon;timestamp;P1;durP1;ratioP1;P2;durP2;ratioP2
63499;SDS011;49654;51.142;14.924;2022-12-04T00:00:32;151.60;;;64.90;;
63499;SDS011;49654;51.142;14.924;2022-12-04T00:03:00;157.37;;;66.47;;
63499;SDS011;49654;51.142;14.924;2022-12-04T00:05:27;165.23;;;68.93;;
63499;SDS011;49654;51.142;14.924;2022-12-04T00:07:54;154.27;;;64.83;;
63499;SDS011;49654;51.142;14.924;2022-12-04T00:10:21;167.87;;;69.83;;
63499;SDS011;49654;51.142;14.924;2022-12-04T00:12:48;157.30;;;66.33;;
63499;SDS011;49654;51.142;14.924;2022-12-04T00:15:15;153.17;;;65.57;;
63499;SDS011;49654;51.142;14.924;2022-12-04T00:17:45;159.23;;;64.27;;
63499;SDS011;49654;51.142;14.924;2022-12-04T00:20:14;150.00;;;64.93;;
63499;SDS011;49654;51.142;14.924;2022-12-04T00:22:41;156.90;;;64.90;;
63499;SDS011;49654;51.142;14.924;2022-12-04T00:25:08;158.00;;;66.03;;
63499;SDS011;49654;51.142;14.924;2022-12-04T00:27:35;153.60;;;64.83;;
63499;SDS011;49654;51.142;14.924;2022-12-04T00:30:03;146.00;;;64.63;;
63499;SDS011;49654;51.142;14.924;2022-12-04T00:32:30;147.30;;;66.67;;
63499;SDS011;49654;51.142;14.924;2022-12-04T00:34:57;149.20;;;64.00;;
63499;SDS011;49654;51.142;14.924;2022-12-04T00:37:26;150.27;;;64.30;;
63499;SDS011;49654;51.142;14.924;2022-12-04T00:39:53;152.93;;;60.93;;
63499;SDS011;49654;51.142;14.924;2022-12-04T00:42:20;150.87;;;62.50;;
63499;SDS011;49654;51.142;14.924;2022-12-04T00:44:47;151.87;;;63.67;;
63499;SDS011;49654;51.142;14.924;2022-12-04T00:47:14;154.83;;;65.70;;
63499;SDS011;49654;51.142;14.924;2022-12-04T00:49:41;144.23;;;63.00;;
63499;SDS011;49654;51.142;14.924;2022-12-04T00:52:08;154.23;;;63.93;;
63499;SDS011;49654;51.142;14.924;2022-12-04T00:54:37;148.13;;;63.03;;
63499;SDS011;49654;51.142;14.924;2022-12-04T00:57:04;138.77;;;63.93;;
63499;SDS011;49654;51.142;14.924;2022-12-04T00:59:31;138.70;;;60.97;;
63499;SDS011;49654;51.142;14.924;2022-12-04T01:01:58;143.17;;;62.47;;
63499;SDS011;49654;51.142;14.924;2022-12-04T01:04:25;131.77;;;59.07;;
63499;SDS011;49654;51.142;14.924;2022-12-04T01:06:52;151.07;;;62.83;;
63499;SDS011;49654;51.142;14.924;2022-12-04T01:09:19;151.83;;;64.53;;
63499;SDS011;49654;51.142;14.924;2022-12-04T01:11:47;148.27;;;64.20;;
63499;SDS011;49654;51.142;14.924;2022-12-04T01:14:14;150.67;;;64.33;;
63499;SDS011;49654;51.142;14.924;2022-12-04T01:16:41;151.47;;;63.50;;
63499;SDS011;49654;51.142;14.924;2022-12-04T01:19:10;141.80;;;60.10;;
63499;SDS011;49654;51.142;14.924;2022-12-04T01:21:38;146.40;;;62.30;;
63499;SDS011;49654;51.142;14.924;2022-12-04T01:24:06;138.57;;;62.47;;
63499;SDS011;49654;51.142;14.924;2022-12-04T01:26:33;144.17;;;65.20;;
63499;SDS011;49654;51.142;14.924;2022-12-04T01:29:02;146.70;;;63.90;;
63499;SDS011;49654;51.142;14.924;2022-12-04T01:31:29;139.97;;;63.50;;
63499;SDS011;49654;51.142;14.924;2022-12-04T01:33:57;144.37;;;63.70;;
63499;SDS011;49654;51.142;14.924;2022-12-04T01:36:25;139.23;;;64.57;;
63499;SDS011;49654;51.142;14.924;2022-12-04T01:38:53;153.13;;;65.77;;
63499;SDS011;49654;51.142;14.924;2022-12-04T01:41:22;143.83;;;61.93;;
63499;SDS011;49654;51.142;14.924;2022-12-04T01:44:09;146.73;;;65.53;;
63499;SDS011;49654;51.142;14.924;2022-12-04T01:46:39;146.17;;;61.93;;
63499;SDS011;49654;51.142;14.924;2022-12-04T01:49:07;139.43;;;62.83;;
63499;SDS011;49654;51.142;14.924;2022-12-04T01:51:38;136.83;;;63.67;;
63499;SDS011;49654;51.142;14.924;2022-12-04T01:54:08;149.30;;;66.70;;
63499;SDS011;49654;51.142;14.924;2022-12-04T01:56:40;148.07;;;64.87;;
63499;SDS011;49654;51.142;14.924;2022-12-04T01:59:11;142.90;;;63.30;;
63499;SDS011;49654;51.142;14.924;2022-12-04T02:01:43;147.53;;;63.67;;
63499;SDS011;49654;51.142;14.924;2022-12-04T02:04:22;138.47;;;60.87;;
63499;SDS011;49654;51.142;14.924;2022-12-04T02:06:49;137.07;;;64.07;;
63499;SDS011;49654;51.142;14.924;2022-12-04T02:09:16;133.33;;;61.23;;
63499;SDS011;49654;51.142;14.924;2022-12-04T02:11:45;142.00;;;61.73;;
63499;SDS011;49654;51.142;14.924;2022-12-04T02:14:22;141.80;;;62.33;;
63499;SDS011;49654;51.142;14.924;2022-12-04T02:16:59;137.80;;;61.73;;
63499;SDS011;49654;51.142;14.924;2022-12-04T02:19:40;146.77;;;63.67;;
63499;SDS011;49654;51.142;14.924;2022-12-04T02:22:23;134.80;;;61.30;;
63499;SDS011;49654;51.142;14.924;2022-12-04T02:24:57;145.20;;;64.43;;
63499;SDS011;49654;51.142;14.924;2022-12-04T02:27:52;138.20;;;62.87;;
63499;SDS011;49654;51.142;14.924;2022-12-04T02:30:35;147.87;;;69.27;;
63499;SDS011;49654;51.142;14.924;2022-12-04T02:33:06;150.50;;;68.83;;
63499;SDS011;49654;51.142;14.924;2022-12-04T02:35:41;147.60;;;63.27;;
63499;SDS011;49654;51.142;14.924;2022-12-04T02:38:13;146.83;;;65.13;;
63499;SDS011;49654;51.142;14.924;2022-12-04T02:40:49;147.20;;;65.50;;
63499;SDS011;49654;51.142;14.924;2022-12-04T02:43:23;137.17;;;62.03;;
63499;SDS011;49654;51.142;14.924;2022-12-04T02:45:54;145.97;;;63.93;;
63499;SDS011;49654;51.142;14.924;2022-12-04T02:48:25;142.20;;;63.63;;
63499;SDS011;49654;51.142;14.924;2022-12-04T02:50:56;148.83;;;66.77;;
63499;SDS011;49654;51.142;14.924;2022-12-04T02:53:28;149.37;;;62.87;;
63499;SDS011;49654;51.142;14.924;2022-12-04T02:55:59;143.47;;;64.07;;
63499;SDS011;49654;51.142;14.924;2022-12-04T02:58:33;144.50;;;61.57;;
63499;SDS011;49654;51.142;14.924;2022-12-04T03:01:06;150.37;;;63.13;;
63499;SDS011;49654;51.142;14.924;2022-12-04T03:03:44;145.83;;;62.17;;
63499;SDS011;49654;51.142;14.924;2022-12-04T03:06:15;149.57;;;63.50;;
63499;SDS011;49654;51.142;14.924;2022-12-04T03:08:46;150.97;;;63.63;;
63499;SDS011;49654;51.142;14.924;2022-12-04T03:11:19;146.30;;;63.00;;
63499;SDS011;49654;51.142;14.924;2022-12-04T03:13:48;145.17;;;63.40;;
63499;SDS011;49654;51.142;14.924;2022-12-04T03:16:19;145.30;;;64.27;;
63499;SDS011;49654;51.142;14.924;2022-12-04T03:18:52;150.27;;;66.07;;
63499;SDS011;49654;51.142;14.924;2022-12-04T03:21:24;142.73;;;64.47;;
63499;SDS011;49654;51.142;14.924;2022-12-04T03:23:56;139.93;;;64.47;;
63499;SDS011;49654;51.142;14.924;2022-12-04T03:26:29;153.13;;;66.33;;
63499;SDS011;49654;51.142;14.924;2022-12-04T03:29:04;145.00;;;63.13;;
63499;SDS011;49654;51.142;14.924;2022-12-04T03:31:37;150.13;;;64.47;;
63499;SDS011;49654;51.142;14.924;2022-12-04T03:34:09;151.73;;;64.07;;
63499;SDS011;49654;51.142;14.924;2022-12-04T03:36:40;143.00;;;65.63;;
63499;SDS011;49654;51.142;14.924;2022-12-04T03:39:15;139.43;;;62.07;;
63499;SDS011;49654;51.142;14.924;2022-12-04T03:41:53;143.67;;;64.93;;
63499;SDS011;49654;51.142;14.924;2022-12-04T03:44:25;138.40;;;65.37;;
63499;SDS011;49654;51.142;14.924;2022-12-04T03:46:59;140.70;;;64.00;;
63499;SDS011;49654;51.142;14.924;2022-12-04T03:49:31;142.37;;;63.80;;
63499;SDS011;49654;51.142;14.924;2022-12-04T03:52:06;155.13;;;65.57;;
63499;SDS011;49654;51.142;14.924;2022-12-04T03:54:41;147.43;;;66.67;;
63499;SDS011;49654;51.142;14.924;2022-12-04T03:57:12;130.57;;;62.40;;
63499;SDS011;49654;51.142;14.924;2022-12-04T03:59:46;146.17;;;65.20;;
63499;SDS011;49654;51.142;14.924;2022-12-04T04:02:18;151.73;;;66.53;;
63499;SDS011;49654;51.142;14.924;2022-12-04T04:04:48;138.63;;;61.47;;
63499;SDS011;49654;51.142;14.924;2022-12-04T04:07:19;148.37;;;65.80;;
63499;SDS011;49654;51.142;14.924;2022-12-04T04:09:52;143.57;;;62.33;;
63499;SDS011;49654;51.142;14.924;2022-12-04T04:12:26;140.33;;;62.90;;
63499;SDS011;49654;51.142;14.924;2022-12-04T04:14:58;151.03;;;65.57;;
63499;SDS011;49654;51.142;14.924;2022-12-04T04:17:45;135.07;;;62.60;;
63499;SDS011;49654;51.142;14.924;2022-12-04T04:20:33;138.73;;;62.73;;
63499;SDS011;49654;51.142;14.924;2022-12-04T04:23:20;141.17;;;63.17;;
63499;SDS011;49654;51.142;14.924;2022-12-04T04:26:05;137.70;;;60.97;;
63499;SDS011;49654;51.142;14.924;2022-12-04T04:28:35;149.43;;;65.77;;
63499;SDS011;49654;51.142;14.924;2022-12-04T04:31:06;143.23;;;63.47;;
63499;SDS011;49654;51.142;14.924;2022-12-04T04:33:40;142.33;;;64.93;;
63499;SDS011;49654;51.142;14.924;2022-12-04T04:36:14;145.73;;;63.53;;
63499;SDS011;49654;51.142;14.924;2022-12-04T04:38:50;141.03;;;61.80;;
63499;SDS011;49654;51.142;14.924;2022-12-04T04:41:25;136.40;;;59.63;;
63499;SDS011;49654;51.142;14.924;2022-12-04T04:44:01;136.67;;;61.80;;
63499;SDS011;49654;51.142;14.924;2022-12-04T04:46:38;140.87;;;61.80;;
63499;SDS011;49654;51.142;14.924;2022-12-04T04:49:11;141.53;;;64.50;;
63499;SDS011;49654;51.142;14.924;2022-12-04T04:51:40;147.47;;;65.87;;
63499;SDS011;49654;51.142;14.924;2022-12-04T04:54:10;148.90;;;66.97;;
63499;SDS011;49654;51.142;14.924;2022-12-04T04:56:40;144.53;;;65.07;;
63499;SDS011;49654;51.142;14.924;2022-12-04T04:59:08;146.63;;;66.63;;
63499;SDS011;49654;51.142;14.924;2022-12-04T05:01:35;150.73;;;68.03;;
63499;SDS011;49654;51.142;14.924;2022-12-04T05:04:06;153.27;;;68.70;;
63499;SDS011;49654;51.142;14.924;2022-12-04T05:06:33;153.90;;;70.07;;
63499;SDS011;49654;51.142;14.924;2022-12-04T05:09:00;146.83;;;67.33;;
63499;SDS011;49654;51.142;14.924;2022-12-04T05:11:27;145.73;;;67.37;;
63499;SDS011;49654;51.142;14.924;2022-12-04T05:13:54;151.10;;;67.33;;
63499;SDS011;49654;51.142;14.924;2022-12-04T05:16:22;147.80;;;65.67;;
63499;SDS011;49654;51.142;14.924;2022-12-04T05:18:50;153.17;;;65.87;;
63499;SDS011;49654;51.142;14.924;2022-12-04T05:21:31;158.57;;;66.73;;
63499;SDS011;49654;51.142;14.924;2022-12-04T05:23:59;154.07;;;67.37;;
63499;SDS011;49654;51.142;14.924;2022-12-04T05:26:26;159.63;;;68.57;;
63499;SDS011;49654;51.142;14.924;2022-12-04T05:28:53;156.77;;;68.10;;
63499;SDS011;49654;51.142;14.924;2022-12-04T05:31:20;161.30;;;70.40;;
63499;SDS011;49654;51.142;14.924;2022-12-04T05:33:47;154.57;;;68.30;;
63499;SDS011;49654;51.142;14.924;2022-12-04T05:36:15;166.43;;;72.00;;
63499;SDS011;49654;51.142;14.924;2022-12-04T05:38:42;145.70;;;67.87;;
63499;SDS011;49654;51.142;14.924;2022-12-04T05:41:10;155.47;;;71.70;;
63499;SDS011;49654;51.142;14.924;2022-12-04T05:43:37;171.90;;;73.33;;
63499;SDS011;49654;51.142;14.924;2022-12-04T05:46:04;162.47;;;71.67;;
63499;SDS011;49654;51.142;14.924;2022-12-04T05:48:33;166.23;;;72.37;;
63499;SDS011;49654;51.142;14.924;2022-12-04T05:51:03;160.33;;;69.57;;
63499;SDS011;49654;51.142;14.924;2022-12-04T05:53:33;179.33;;;73.50;;
63499;SDS011;49654;51.142;14.924;2022-12-04T05:56:00;162.27;;;70.43;;
63499;SDS011;49654;51.142;14.924;2022-12-04T05:58:29;169.17;;;74.57;;
63499;SDS011;49654;51.142;14.924;2022-12-04T06:00:56;163.37;;;70.70;;
63499;SDS011;49654;51.142;14.924;2022-12-04T06:03:23;174.93;;;72.63;;
63499;SDS011;49654;51.142;14.924;2022-12-04T06:05:50;167.47;;;71.97;;
63499;SDS011;49654;51.142;14.924;2022-12-04T06:08:17;164.47;;;74.23;;
63499;SDS011;49654;51.142;14.924;2022-12-04T06:10:46;163.63;;;72.27;;
63499;SDS011;49654;51.142;14.924;2022-12-04T06:13:13;170.23;;;74.67;;
63499;SDS011;49654;51.142;14.924;2022-12-04T06:15:40;168.77;;;72.53;;
63499;SDS011;49654;51.142;14.924;2022-12-04T06:18:07;162.87;;;71.43;;
63499;SDS011;49654;51.142;14.924;2022-12-04T06:20:34;169.20;;;73.33;;
63499;SDS011;49654;51.142;14.924;2022-12-04T06:23:01;171.37;;;73.33;;
63499;SDS011;49654;51.142;14.924;2022-12-04T06:25:28;175.87;;;75.23;;
63499;SDS011;49654;51.142;14.924;2022-12-04T06:27:57;167.87;;;73.40;;
63499;SDS011;49654;51.142;14.924;2022-12-04T06:30:24;167.43;;;71.57;;
63499;SDS011;49654;51.142;14.924;2022-12-04T06:32:51;174.27;;;74.10;;
63499;SDS011;49654;51.142;14.924;2022-12-04T06:35:18;179.20;;;75.13;;
63499;SDS011;49654;51.142;14.924;2022-12-04T06:37:45;169.53;;;72.43;;
63499;SDS011;49654;51.142;14.924;2022-12-04T06:40:12;176.60;;;75.70;;
63499;SDS011;49654;51.142;14.924;2022-12-04T06:42:39;178.37;;;76.73;;
63499;SDS011;49654;51.142;14.924;2022-12-04T06:45:09;163.57;;;74.07;;
63499;SDS011;49654;51.142;14.924;2022-12-04T06:47:36;180.47;;;74.10;;
63499;SDS011;49654;51.142;14.924;2022-12-04T06:50:04;169.73;;;73.10;;
63499;SDS011;49654;51.142;14.924;2022-12-04T06:52:32;166.87;;;75.03;;
63499;SDS011;49654;51.142;14.924;2022-12-04T06:54:59;172.57;;;74.40;;
63499;SDS011;49654;51.142;14.924;2022-12-04T06:57:27;177.50;;;76.33;;
63499;SDS011;49654;51.142;14.924;2022-12-04T06:59:54;173.17;;;74.00;;
63499;SDS011;49654;51.142;14.924;2022-12-04T07:02:22;172.30;;;75.17;;
63499;SDS011;49654;51.142;14.924;2022-12-04T07:04:52;167.13;;;73.03;;
63499;SDS011;49654;51.142;14.924;2022-12-04T07:07:20;174.80;;;74.73;;
63499;SDS011;49654;51.142;14.924;2022-12-04T07:09:47;162.67;;;71.77;;
63499;SDS011;49654;51.142;14.924;2022-12-04T07:12:15;169.87;;;73.33;;
63499;SDS011;49654;51.142;14.924;2022-12-04T07:14:42;170.13;;;73.47;;
63499;SDS011;49654;51.142;14.924;2022-12-04T07:17:09;172.60;;;73.70;;
63499;SDS011;49654;51.142;14.924;2022-12-04T07:19:37;161.70;;;71.63;;
63499;SDS011;49654;51.142;14.924;2022-12-04T07:22:04;169.33;;;72.10;;
63499;SDS011;49654;51.142;14.924;2022-12-04T07:24:33;161.90;;;72.97;;
63499;SDS011;49654;51.142;14.924;2022-12-04T07:27:02;170.47;;;73.17;;
63499;SDS011;49654;51.142;14.924;2022-12-04T07:29:29;165.73;;;73.10;;
63499;SDS011;49654;51.142;14.924;2022-12-04T07:31:56;161.93;;;70.87;;
63499;SDS011;49654;51.142;14.924;2022-12-04T07:34:24;162.73;;;71.73;;
63499;SDS011;49654;51.142;14.924;2022-12-04T07:36:52;155.40;;;69.17;;
63499;SDS011;49654;51.142;14.924;2022-12-04T07:39:19;163.03;;;71.63;;
63499;SDS011;49654;51.142;14.924;2022-12-04T07:41:46;159.57;;;68.97;;
63499;SDS011;49654;51.142;14.924;2022-12-04T07:44:13;163.70;;;72.17;;
63499;SDS011;49654;51.142;14.924;2022-12-04T07:46:43;167.73;;;71.73;;
63499;SDS011;49654;51.142;14.924;2022-12-04T07:49:10;163.63;;;71.73;;
63499;SDS011;49654;51.142;14.924;2022-12-04T07:51:37;170.03;;;75.17;;
63499;SDS011;49654;51.142;14.924;2022-12-04T07:54:13;168.60;;;72.93;;
63499;SDS011;49654;51.142;14.924;2022-12-04T07:56:42;167.07;;;75.10;;
63499;SDS011;49654;51.142;14.924;2022-12-04T07:59:09;165.83;;;71.37;;
63499;SDS011;49654;51.142;14.924;2022-12-04T08:01:36;163.67;;;71.77;;
63499;SDS011;49654;51.142;14.924;2022-12-04T08:04:03;158.87;;;70.37;;
63499;SDS011;49654;51.142;14.924;2022-12-04T08:06:31;159.63;;;71.53;;
63499;SDS011;49654;51.142;14.924;2022-12-04T08:09:00;156.43;;;70.43;;
63499;SDS011;49654;51.142;14.924;2022-12-04T08:11:29;160.13;;;70.30;;
63499;SDS011;49654;51.142;14.924;2022-12-04T08:13:56;169.87;;;72.20;;
63499;SDS011;49654;51.142;14.924;2022-12-04T08:16:25;169.33;;;70.97;;
63499;SDS011;49654;51.142;14.924;2022-12-04T08:18:53;159.70;;;71.20;;
63499;SDS011;49654;51.142;14.924;2022-12-04T08:21:23;171.37;;;73.83;;
63499;SDS011;49654;51.142;14.924;2022-12-04T08:23:52;173.77;;;73.90;;
63499;SDS011;49654;51.142;14.924;2022-12-04T08:26:21;174.60;;;73.17;;
63499;SDS011;49654;51.142;14.924;2022-12-04T08:28:52;176.13;;;74.07;;
63499;SDS011;49654;51.142;14.924;2022-12-04T08:31:20;174.03;;;74.07;;
63499;SDS011;49654;51.142;14.924;2022-12-04T08:33:49;169.83;;;74.83;;
63499;SDS011;49654;51.142;14.924;2022-12-04T08:36:17;181.00;;;76.37;;
63499;SDS011;49654;51.142;14.924;2022-12-04T08:38:46;176.03;;;75.53;;
63499;SDS011;49654;51.142;14.924;2022-12-04T08:41:14;184.50;;;75.70;;
63499;SDS011;49654;51.142;14.924;2022-12-04T08:43:43;180.00;;;78.37;;
63499;SDS011;49654;51.142;14.924;2022-12-04T08:46:13;183.40;;;78.57;;
63499;SDS011;49654;51.142;14.924;2022-12-04T08:48:42;187.97;;;78.80;;
63499;SDS011;49654;51.142;14.924;2022-12-04T08:51:11;190.60;;;78.17;;
63499;SDS011;49654;51.142;14.924;2022-12-04T08:53:40;187.20;;;79.83;;
63499;SDS011;49654;51.142;14.924;2022-12-04T08:56:07;187.70;;;77.80;;
63499;SDS011;49654;51.142;14.924;2022-12-04T08:58:34;183.90;;;76.50;;
63499;SDS011;49654;51.142;14.924;2022-12-04T09:01:02;183.00;;;79.67;;
63499;SDS011;49654;51.142;14.924;2022-12-04T09:03:31;184.80;;;75.73;;
63499;SDS011;49654;51.142;14.924;2022-12-04T09:05:59;192.37;;;76.60;;
63499;SDS011;49654;51.142;14.924;2022-12-04T09:08:27;195.10;;;78.73;;
63499;SDS011;49654;51.142;14.924;2022-12-04T09:10:54;197.87;;;78.50;;
63499;SDS011;49654;51.142;14.924;2022-12-04T09:13:21;173.63;;;77.47;;
63499;SDS011;49654;51.142;14.924;2022-12-04T09:15:48;170.57;;;72.00;;
63499;SDS011;49654;51.142;14.924;2022-12-04T09:18:15;171.90;;;75.20;;
63499;SDS011;49654;51.142;14.924;2022-12-04T09:20:43;155.93;;;71.50;;
63499;SDS011;49654;51.142;14.924;2022-12-04T09:23:11;161.70;;;70.33;;
63499;SDS011;49654;51.142;14.924;2022-12-04T09:25:38;154.33;;;71.03;;
63499;SDS011;49654;51.142;14.924;2022-12-04T09:28:05;165.53;;;73.17;;
63499;SDS011;49654;51.142;14.924;2022-12-04T09:30:32;151.67;;;72.43;;
63499;SDS011;49654;51.142;14.924;2022-12-04T09:32:59;159.93;;;71.73;;
63499;SDS011;49654;51.142;14.924;2022-12-04T09:35:26;167.00;;;73.73;;
63499;SDS011;49654;51.142;14.924;2022-12-04T09:37:56;157.80;;;72.07;;
63499;SDS011;49654;51.142;14.924;2022-12-04T09:40:25;163.83;;;76.63;;
63499;SDS011;49654;51.142;14.924;2022-12-04T09:42:55;162.23;;;75.27;;
63499;SDS011;49654;51.142;14.924;2022-12-04T09:45:29;163.27;;;78.17;;
63499;SDS011;49654;51.142;14.924;2022-12-04T09:48:07;153.43;;;72.30;;
63499;SDS011;49654;51.142;14.924;2022-12-04T09:50:38;163.13;;;74.50;;
63499;SDS011;49654;51.142;14.924;2022-12-04T09:53:10;160.90;;;71.60;;
63499;SDS011;49654;51.142;14.924;2022-12-04T09:55:41;161.93;;;74.93;;
63499;SDS011;49654;51.142;14.924;2022-12-04T09:58:11;168.30;;;74.00;;
63499;SDS011;49654;51.142;14.924;2022-12-04T10:00:41;154.27;;;73.17;;
63499;SDS011;49654;51.142;14.924;2022-12-04T10:03:13;160.30;;;71.40;;
63499;SDS011;49654;51.142;14.924;2022-12-04T10:05:44;162.47;;;74.57;;
63499;SDS011;49654;51.142;14.924;2022-12-04T10:08:22;164.73;;;74.57;;
63499;SDS011;49654;51.142;14.924;2022-12-04T10:10:55;152.03;;;71.50;;
63499;SDS011;49654;51.142;14.924;2022-12-04T10:13:36;154.10;;;71.10;;
63499;SDS011;49654;51.142;14.924;2022-12-04T10:16:18;161.77;;;71.90;;
63499;SDS011;49654;51.142;14.924;2022-12-04T10:18:52;153.43;;;72.70;;
63499;SDS011;49654;51.142;14.924;2022-12-04T10:21:30;151.20;;;73.17;;
63499;SDS011;49654;51.142;14.924;2022-12-04T10:24:10;155.47;;;72.33;;
63499;SDS011;49654;51.142;14.924;2022-12-04T10:26:47;155.77;;;75.20;;
63499;SDS011;49654;51.142;14.924;2022-12-04T10:29:17;157.00;;;72.20;;
63499;SDS011;49654;51.142;14.924;2022-12-04T10:31:48;152.37;;;74.40;;
63499;SDS011;49654;51.142;14.924;2022-12-04T10:34:20;158.27;;;73.57;;
63499;SDS011;49654;51.142;14.924;2022-12-04T10:36:52;159.20;;;73.33;;
63499;SDS011;49654;51.142;14.924;2022-12-04T10:39:23;150.97;;;70.10;;
63499;SDS011;49654;51.142;14.924;2022-12-04T10:41:57;149.03;;;68.37;;
63499;SDS011;49654;51.142;14.924;2022-12-04T10:44:27;144.53;;;69.27;;
63499;SDS011;49654;51.142;14.924;2022-12-04T10:46:55;155.43;;;71.27;;
63499;SDS011;49654;51.142;14.924;2022-12-04T10:49:25;146.00;;;69.77;;
63499;SDS011;49654;51.142;14.924;2022-12-04T10:51:54;144.07;;;68.73;;
63499;SDS011;49654;51.142;14.924;2022-12-04T10:54:24;145.03;;;66.23;;
63499;SDS011;49654;51.142;14.924;2022-12-04T10:56:57;141.43;;;68.30;;
63499;SDS011;49654;51.142;14.924;2022-12-04T10:59:25;141.02;;;66.25;;
63499;SDS011;49654;51.142;14.924;2022-12-04T11:01:58;133.93;;;64.23;;
63499;SDS011;49654;51.142;14.924;2022-12-04T11:04:26;131.93;;;62.23;;
63499;SDS011;49654;51.142;14.924;2022-12-04T11:07:02;130.37;;;61.67;;
63499;SDS011;49654;51.142;14.924;2022-12-04T11:09:32;136.47;;;63.33;;
63499;SDS011;49654;51.142;14.924;2022-12-04T11:12:06;136.17;;;64.27;;
63499;SDS011;49654;51.142;14.924;2022-12-04T11:14:41;131.00;;;60.33;;
63499;SDS011;49654;51.142;14.924;2022-12-04T11:17:12;126.33;;;59.67;;
63499;SDS011;49654;51.142;14.924;2022-12-04T11:19:45;128.47;;;59.87;;
63499;SDS011;49654;51.142;14.924;2022-12-04T11:22:13;122.00;;;58.70;;
63499;SDS011;49654;51.142;14.924;2022-12-04T11:24:48;125.37;;;58.20;;
63499;SDS011;49654;51.142;14.924;2022-12-04T11:27:18;121.87;;;57.27;;
63499;SDS011;49654;51.142;14.924;2022-12-04T11:29:47;120.63;;;58.37;;
63499;SDS011;49654;51.142;14.924;2022-12-04T11:32:17;121.73;;;57.63;;
63499;SDS011;49654;51.142;14.924;2022-12-04T11:34:47;118.93;;;56.23;;
63499;SDS011;49654;51.142;14.924;2022-12-04T11:37:17;116.73;;;54.83;;
63499;SDS011;49654;51.142;14.924;2022-12-04T11:39:48;118.80;;;55.37;;
63499;SDS011;49654;51.142;14.924;2022-12-04T11:42:17;125.47;;;55.57;;
63499;SDS011;49654;51.142;14.924;2022-12-04T11:44:50;119.20;;;53.87;;
63499;SDS011;49654;51.142;14.924;2022-12-04T11:47:19;115.00;;;55.43;;
63499;SDS011;49654;51.142;14.924;2022-12-04T11:49:56;119.80;;;54.13;;
63499;SDS011;49654;51.142;14.924;2022-12-04T11:52:28;112.60;;;54.43;;
63499;SDS011;49654;51.142;14.924;2022-12-04T11:55:13;108.50;;;52.70;;
63499;SDS011;49654;51.142;14.924;2022-12-04T11:57:46;110.47;;;53.23;;
63499;SDS011;49654;51.142;14.924;2022-12-04T12:00:20;114.33;;;53.17;;
63499;SDS011;49654;51.142;14.924;2022-12-04T12:02:58;110.23;;;52.63;;
63499;SDS011;49654;51.142;14.924;2022-12-04T12:05:35;110.83;;;54.60;;
63499;SDS011;49654;51.142;14.924;2022-12-04T12:08:29;108.13;;;53.47;;
63499;SDS011;49654;51.142;14.924;2022-12-04T12:11:12;122.10;;;57.50;;
63499;SDS011;49654;51.142;14.924;2022-12-04T12:13:49;108.17;;;51.17;;
63499;SDS011;49654;51.142;14.924;2022-12-04T12:16:26;105.43;;;49.33;;
63499;SDS011;49654;51.142;14.924;2022-12-04T12:19:11;101.83;;;50.03;;
63499;SDS011;49654;51.142;14.924;2022-12-04T12:21:53;93.23;;;47.17;;
63499;SDS011;49654;51.142;14.924;2022-12-04T12:24:26;104.53;;;50.83;;
63499;SDS011;49654;51.142;14.924;2022-12-04T12:27:04;101.87;;;49.97;;
63499;SDS011;49654;51.142;14.924;2022-12-04T12:29:49;99.37;;;49.53;;
63499;SDS011;49654;51.142;14.924;2022-12-04T12:32:30;115.23;;;53.17;;
63499;SDS011;49654;51.142;14.924;2022-12-04T12:35:13;113.30;;;52.97;;
63499;SDS011;49654;51.142;14.924;2022-12-04T12:37:46;113.07;;;54.07;;
63499;SDS011;49654;51.142;14.924;2022-12-04T12:40:22;119.70;;;54.80;;
63499;SDS011;49654;51.142;14.924;2022-12-04T12:42:56;118.93;;;54.47;;
63499;SDS011;49654;51.142;14.924;2022-12-04T12:45:28;117.60;;;54.80;;
63499;SDS011;49654;51.142;14.924;2022-12-04T12:48:06;113.33;;;55.07;;
63499;SDS011;49654;51.142;14.924;2022-12-04T12:50:43;110.77;;;52.33;;
63499;SDS011;49654;51.142;14.924;2022-12-04T12:53:15;114.93;;;54.93;;
63499;SDS011;49654;51.142;14.924;2022-12-04T12:55:47;114.90;;;55.27;;
63499;SDS011;49654;51.142;14.924;2022-12-04T12:58:20;113.80;;;51.53;;
63499;SDS011;49654;51.142;14.924;2022-12-04T13:00:55;98.17;;;49.20;;
63499;SDS011;49654;51.142;14.924;2022-12-04T13:03:27;96.87;;;48.67;;
63499;SDS011;49654;51.142;14.924;2022-12-04T13:06:02;98.40;;;47.80;;
63499;SDS011;49654;51.142;14.924;2022-12-04T13:08:34;104.57;;;49.30;;
63499;SDS011;49654;51.142;14.924;2022-12-04T13:11:06;113.20;;;51.93;;
63499;SDS011;49654;51.142;14.924;2022-12-04T13:13:40;121.97;;;54.07;;
63499;SDS011;49654;51.142;14.924;2022-12-04T13:16:11;108.47;;;51.77;;
63499;SDS011;49654;51.142;14.924;2022-12-04T13:18:43;122.87;;;56.10;;
63499;SDS011;49654;51.142;14.924;2022-12-04T13:21:20;109.87;;;52.30;;
63499;SDS011;49654;51.142;14.924;2022-12-04T13:23:58;128.43;;;55.30;;
63499;SDS011;49654;51.142;14.924;2022-12-04T13:26:46;128.30;;;54.70;;
63499;SDS011;49654;51.142;14.924;2022-12-04T13:29:28;126.60;;;54.17;;
63499;SDS011;49654;51.142;14.924;2022-12-04T13:32:09;125.50;;;54.80;;
63499;SDS011;49654;51.142;14.924;2022-12-04T13:34:56;122.67;;;53.80;;
63499;SDS011;49654;51.142;14.924;2022-12-04T13:37:34;122.17;;;53.73;;
63499;SDS011;49654;51.142;14.924;2022-12-04T13:43:16;126.07;;;53.67;;
63499;SDS011;49654;51.142;14.924;2022-12-04T13:45:53;123.33;;;52.57;;
63499;SDS011;49654;51.142;14.924;2022-12-04T13:48:27;132.40;;;57.03;;
63499;SDS011;49654;51.142;14.924;2022-12-04T13:51:19;128.33;;;55.03;;
63499;SDS011;49654;51.142;14.924;2022-12-04T13:56:47;133.63;;;57.57;;
63499;SDS011;49654;51.142;14.924;2022-12-04T13:59:20;137.73;;;58.30;;
63499;SDS011;49654;51.142;14.924;2022-12-04T14:01:51;135.77;;;58.53;;
63499;SDS011;49654;51.142;14.924;2022-12-04T14:04:24;139.73;;;59.47;;
63499;SDS011;49654;51.142;14.924;2022-12-04T14:06:52;140.03;;;60.77;;
63499;SDS011;49654;51.142;14.924;2022-12-04T14:09:24;150.33;;;63.30;;
63499;SDS011;49654;51.142;14.924;2022-12-04T14:11:55;143.73;;;60.20;;
63499;SDS011;49654;51.142;14.924;2022-12-04T14:14:25;159.93;;;64.40;;
63499;SDS011;49654;51.142;14.924;2022-12-04T14:16:58;138.90;;;61.80;;
63499;SDS011;49654;51.142;14.924;2022-12-04T14:19:27;144.27;;;64.03;;
63499;SDS011;49654;51.142;14.924;2022-12-04T14:21:57;148.90;;;61.83;;
63499;SDS011;49654;51.142;14.924;2022-12-04T14:24:29;148.17;;;62.70;;